Terminal Aerodrome Forecast
Issued by NWS

Home | Current Version | Previous Version | Text Only | Print | Product List | Glossary On
Versions: 1 2 3 4 5 6 7 8 9 10 11 12 13 14 15 16 17 18 19 20 21 22 23 24 25 26 27 28 29 30 31 32 33 34 35 36 37 38 39
000
FTAK31 PANC 280538
TAFACD
TAF
PACD 280538Z 2806/2906 03015G23KT P6SM VCSH FEW035 BKN060
     FM280800 03020G30KT P6SM VCSH BKN025 OVC035
     FM281000 03026G38KT 5SM -RASN OVC015
     FM281600 05020G28KT P6SM -SHRASN OVC020
     FM290000 01018G25KT P6SM -SHSN SCT020 BKN030=

USA.gov is the U.S. government's official web portal to all federal, state and local government web resources and services.